Terminal Aerodrome Forecast
Issued by NWS Riverton, WY

Home | Current Version | Previous Version | Text Only | Print | Product List | Glossary On
Versions: 1 2 3 4 5 6 7 8 9 10 11 12 13 14 15
000
FTUS45 KRIW 051124
TAFRIW
TAF
KRIW 051124Z 0512/0612 34008KT P6SM SCT120 BKN250
     FM051500 VRB05KT P6SM SCT120 BKN250
     FM052100 24016G26KT P6SM VCTS SCT080CB BKN120
     FM060100 29013KT P6SM VCSH BKN080
     FM060500 34013KT P6SM BKN110
     FM060700 30009KT P6SM SCT110=

USA.gov is the U.S. government's official web portal to all federal, state and local government web resources and services.